createdAt,value
2022-11-23T00:06:16.023Z,1.1
2022-11-23T00:12:38.906Z,6.3
2022-11-23T00:18:59.059Z,6.3
2022-11-23T00:25:21.918Z,1.1
2022-11-23T00:31:41.945Z,1.1
2022-11-23T00:38:04.960Z,0.6
2022-11-23T00:44:24.923Z,0.6
2022-11-23T00:50:47.957Z,1.1
2022-11-23T00:57:07.967Z,1.1
2022-11-23T01:03:30.961Z,2.5
2022-11-23T01:09:50.920Z,2.5
2022-11-23T01:16:14.198Z,0.3
2022-11-23T01:22:33.894Z,0.3
2022-11-23T01:28:56.973Z,0.6
2022-11-23T01:35:16.920Z,0.6
2022-11-23T01:41:39.968Z,0.6
2022-11-23T01:47:59.931Z,0.6
2022-11-23T01:54:22.967Z,0.1
2022-11-23T02:00:42.915Z,0.1
2022-11-23T02:07:06.062Z,1.8
2022-11-23T02:13:25.921Z,1.8
2022-11-23T02:19:48.914Z,0.4
2022-11-23T02:26:08.909Z,0.4
2022-11-23T02:32:31.957Z,3.2
2022-11-23T02:38:51.905Z,3.2
2022-11-23T02:45:14.946Z,11.5
2022-11-23T02:51:34.968Z,11.5
2022-11-23T02:57:57.962Z,0.2
2022-11-23T03:04:19.867Z,0.2
2022-11-23T03:10:40.942Z,1.5
2022-11-23T03:17:01.037Z,1.5
2022-11-23T03:23:23.961Z,0.7
2022-11-23T03:29:43.971Z,0.7
2022-11-23T03:36:06.917Z,2.1
2022-11-23T03:42:26.915Z,2.1
2022-11-23T03:48:50.014Z,0.1
2022-11-23T03:55:09.902Z,0.1
2022-11-23T04:01:33.024Z,0.7
2022-11-23T04:07:52.915Z,0.7
2022-11-23T04:14:15.992Z,0.6
2022-11-23T04:20:35.899Z,0.6
2022-11-23T04:26:59.035Z,1.3
2022-11-23T04:50:22.430Z,5.1
2022-11-23T04:56:41.913Z,5.1
2022-11-23T05:03:04.946Z,5.1
2022-11-23T05:09:24.935Z,5.1
2022-11-23T05:15:47.951Z,4.7
2022-11-23T05:22:07.912Z,4.7
2022-11-23T05:28:39.947Z,15.1
2022-11-23T05:34:50.977Z,15.1
2022-11-23T05:41:13.888Z,0.3
2022-11-23T05:47:33.936Z,0.3
2022-11-23T05:53:56.946Z,0.2
2022-11-23T06:00:16.907Z,0.2
2022-11-23T06:06:39.974Z,1
2022-11-23T06:12:59.911Z,1
2022-11-23T06:19:22.935Z,0.2
2022-11-23T06:25:42.947Z,0.2
2022-11-23T06:32:05.886Z,0.9
2022-11-23T06:38:25.960Z,0.9
2022-11-23T06:44:48.935Z,5.7
2022-11-23T06:51:08.949Z,5.7
2022-11-23T06:57:31.908Z,10.7
2022-11-23T07:03:51.971Z,10.7
2022-11-23T07:10:14.958Z,0.5
2022-11-23T07:16:34.948Z,0.5
2022-11-23T07:22:57.991Z,4.2
2022-11-23T07:29:17.936Z,4.2
2022-11-23T07:35:40.961Z,0.7
2022-11-23T07:42:24.792Z,0.7
2022-11-23T07:48:23.916Z,0.5
2022-11-23T07:54:43.927Z,0.5
2022-11-23T08:01:06.973Z,1.8
2022-11-23T08:07:26.976Z,1.8
2022-11-23T08:13:49.988Z,1
2022-11-23T08:20:09.930Z,1
2022-11-23T08:26:32.958Z,13.9
2022-11-23T08:32:52.947Z,13.9
2022-11-23T08:39:15.938Z,12.2
2022-11-23T08:45:35.990Z,12.2
2022-11-23T08:51:58.877Z,5.7
2022-11-23T08:58:18.936Z,5.7
2022-11-23T09:04:41.933Z,1.2
2022-11-23T09:11:01.872Z,1.2
2022-11-23T09:17:24.985Z,1.8
2022-11-23T09:23:44.938Z,1.8
2022-11-23T09:30:07.976Z,3.6
2022-11-23T09:36:27.931Z,3.6
2022-11-23T09:42:50.961Z,8.1
2022-11-23T09:49:10.988Z,8.1
2022-11-23T10:11:40.855Z,7.2
2022-11-23T10:18:00.882Z,7.2
2022-11-23T10:24:23.939Z,8.8
2022-11-23T10:30:44.066Z,8.8
2022-11-23T10:37:06.901Z,1
2022-11-23T10:43:26.937Z,1
2022-11-23T10:49:49.970Z,1.4
2022-11-23T10:56:09.884Z,1.4
2022-11-23T11:02:32.997Z,4.9
2022-11-23T11:08:52.925Z,4.9
2022-11-23T11:15:15.981Z,15.4
2022-11-23T11:21:35.905Z,15.4
2022-11-23T11:27:58.955Z,1
2022-11-23T11:34:18.926Z,1
2022-11-23T11:40:41.917Z,6.4
2022-11-23T11:47:02.035Z,6.4
2022-11-23T11:53:24.923Z,1.4
2022-11-23T11:59:44.924Z,1.4
2022-11-23T12:06:07.971Z,1.5
2022-11-23T12:12:29.856Z,1.5
2022-11-23T12:18:50.928Z,1.7
2022-11-23T12:25:10.953Z,1.7
2022-11-23T12:31:33.915Z,0.4
2022-11-23T12:37:53.950Z,0.4
2022-11-23T12:44:17.151Z,2.7
2022-11-23T12:50:37.170Z,2.7
2022-11-23T12:57:01.111Z,1
2022-11-23T13:03:21.196Z,1
2022-11-23T13:09:43.950Z,1.1
2022-11-23T13:16:04.041Z,1.1
2022-11-23T13:22:27.109Z,0.7
2022-11-23T13:28:46.961Z,0.7
2022-11-23T13:35:09.977Z,0.7
2022-11-23T13:41:33.305Z,0.7
2022-11-23T13:47:52.903Z,1.9
2022-11-23T13:54:12.971Z,1.9
2022-11-23T14:00:35.942Z,2.9
2022-11-23T14:06:55.902Z,2.9
2022-11-23T14:13:18.940Z,2.3
2022-11-23T14:19:38.918Z,2.3
2022-11-23T14:26:01.935Z,0.1
2022-11-23T14:32:21.901Z,0.1
2022-11-23T14:38:45.024Z,2.2
2022-11-23T14:45:04.936Z,2.2
2022-11-23T14:51:27.904Z,0.4
2022-11-23T14:57:48.034Z,0.4
2022-11-23T15:04:11.130Z,4.5
2022-11-23T15:10:31.005Z,4.5
2022-11-23T15:16:54.050Z,0.7
2022-11-23T15:40:16.939Z,0.7
2022-11-23T15:46:36.967Z,0.7
2022-11-23T15:52:59.970Z,2.6
2022-11-23T15:59:19.925Z,2.6
2022-11-23T16:05:42.963Z,0.4
2022-11-23T16:12:02.948Z,0.4
2022-11-23T16:18:26.198Z,2.1
2022-11-23T16:24:45.996Z,2.1
2022-11-23T16:31:08.976Z,2.4
2022-11-23T16:37:29.222Z,2.4
2022-11-23T16:43:51.982Z,1.1
2022-11-23T16:50:12.057Z,1.1
2022-11-23T16:56:35.013Z,0.6
2022-11-23T17:02:55.226Z,0.6
2022-11-23T17:09:18.028Z,6
2022-11-23T17:15:40.698Z,6
2022-11-23T17:22:03.409Z,2.3
2022-11-23T17:28:22.986Z,2.3
2022-11-23T17:34:45.940Z,0.5
2022-11-23T17:41:05.977Z,0.5
2022-11-23T17:47:28.938Z,1.1
2022-11-23T17:53:49.085Z,1.1
2022-11-23T18:00:11.964Z,4.7
2022-11-23T18:06:31.909Z,4.7
2022-11-23T18:12:54.993Z,3.6
2022-11-23T18:19:14.916Z,3.6
2022-11-23T18:25:37.928Z,3
2022-11-23T18:31:58.472Z,3
2022-11-23T18:38:20.953Z,5.4
2022-11-23T18:44:41.004Z,5.4
2022-11-23T18:51:04.192Z,4.8
2022-11-23T18:57:23.924Z,4.8
2022-11-23T19:03:46.994Z,0.7
2022-11-23T19:10:06.961Z,0.7
2022-11-23T19:16:30.006Z,1.9
2022-11-23T19:22:49.916Z,1.9
2022-11-23T19:29:13.009Z,2
2022-11-23T19:35:32.978Z,2
2022-11-23T19:41:55.910Z,2.5
2022-11-23T19:48:15.988Z,2.5
2022-11-23T19:54:39.398Z,8.2
2022-11-23T20:00:59.289Z,8.2
2022-11-23T20:07:21.975Z,2.5
2022-11-23T20:13:42.042Z,2.5
2022-11-23T20:20:04.985Z,4.5
2022-11-23T20:26:24.993Z,4.5
2022-11-23T20:41:59.845Z,1.9
2022-11-23T20:48:19.928Z,1.9
2022-11-23T20:54:42.924Z,1.3
2022-11-23T21:01:03.054Z,1.3
2022-11-23T21:07:26.350Z,1.1
2022-11-23T21:13:49.735Z,1.1
2022-11-23T21:20:09.789Z,2.7
2022-11-23T21:26:30.068Z,2.7
2022-11-23T21:32:53.038Z,2.7
2022-11-23T21:39:13.009Z,2.7
2022-11-23T21:45:36.002Z,7.7
2022-11-23T21:51:55.934Z,7.7
2022-11-23T21:58:18.996Z,1.5
2022-11-23T22:04:38.991Z,1.5
2022-11-23T22:11:01.921Z,18
2022-11-23T22:17:22.012Z,18
2022-11-23T22:23:44.940Z,12.2
2022-11-23T22:30:04.927Z,12.2
2022-11-23T22:36:27.990Z,10.5
2022-11-23T22:42:47.922Z,10.5
2022-11-23T22:49:10.995Z,2.4
2022-11-23T22:55:30.952Z,2.4
2022-11-23T23:01:53.897Z,5.6
2022-11-23T23:24:50.895Z,11
2022-11-23T23:31:11.263Z,11
2022-11-23T23:37:33.920Z,11
2022-11-23T23:43:54.092Z,11
2022-11-23T23:50:16.901Z,3.6
2022-11-23T23:56:37.022Z,3.6
